Airfield :
LOGIN :

Register | Disclaimer

   EN    FR    IT 

 










Legend :    VFR   Marginal VFR   IFR   Intensive IFR   Very Intensive IFR
Visi :
Ceiling :
>= 8 km
>= 3000ft
5 to 8 km
1000 to 3000 ft
1500m to 5 km
500 to 1000 ft
800 to 1500m
200 to 500 ft
< 800m
< 200 ft
Symbols :   Thunderstorms  Fog  Heavy snow  Heavy precipitations  Wind > 20 kt
SIGMETs :     Misc.  Thunderstorms  Icing  Turbulence  Mountain Waves  Volcanic Ashes







- Airport Elevation : 32 ft
- IATA code : LKZ


EGUL - RAF Lakenheath

CURRENT METAR :
  • 241658Z AUTO 36003KT 9999 FEW060 24/15 A3024 RMK AO2 SLP243 T02370150

EXPIRED METARs :
  • 241558Z AUTO 36003KT 9999 FEW055 23/15 A3024 RMK AO2 SLP243 T02280148
  • 241458Z AUTO 35005KT 9999 SCT040 24/16 A3025 RMK AO2 SLP247 T02370158 57005

TAF TAF EGUL
Valid from the 24 at 12:00 until the 25 at 18:00 UTC


241208Z 2412/2518 35006KT 9999 SCT035 QNH3025INS
BECMG 2501/2502 VRB06KT 8000 BR SCT035 QNH3025INS
BECMG 2508/2509 14009KT 9999 NSW SCT035 QNH3021INS TX24/2415Z TN11/2504Z
No reported NOTAMs for that airfield.



MET'MAP, your aeronautical weather chart ! - Copyright ORBIFLY December 2007 - Disclaimer

ORBIFLY MET'MAP TEAM :

Programming & Development : Alexandra Zaïnal
Concept & Development : Baudouin d'Aumeries
Co-Development & Prog : Marc-Olivier Méhu
Technical & hardware support : Manuel Goepfert

Contact : metmap@orbifly.com




SOURCES & CREDITS :

   NOAA